This is the latest recevied weather packets stored in our database for station/object DL9NEE-10. If no packets are shown the sender has not sent any weather packets the latest 10 day(s).
| Time | Temp. | Humidity | Pressure | Rain* | Wind** | Luminosity | Snow |
|---|---|---|---|---|---|---|---|
| 1778105394 | 13.89° C | 73% | 1010.7 hPa | - | - | - | - |
| 1778104494 | 13.89° C | 72% | 1010.7 hPa | - | - | - | - |
| 1778103594 | 14.44° C | 72% | 1010.5 hPa | - | - | - | - |
| 1778102694 | 13.89° C | 73% | 1010.5 hPa | - | - | - | - |
| 1778101794 | 13.89° C | 73% | 1010.4 hPa | - | - | - | - |
| 1778100893 | 14.44° C | 72% | 1010.3 hPa | - | - | - | - |
| 1778099993 | 14.44° C | 73% | 1010 hPa | - | - | - | - |
| 1778099093 | 14.44° C | 73% | 1009.8 hPa | - | - | - | - |
| 1778098193 | 15° C | 72% | 1009.7 hPa | - | - | - | - |
| 1778097293 | 15° C | 72% | 1009.5 hPa | - | - | - | - |
| 1778096393 | 15° C | 73% | 1009.5 hPa | - | - | - | - |
| 1778095493 | 15° C | 72% | 1009.5 hPa | - | - | - | - |
| 1778094593 | 15° C | 72% | 1009.5 hPa | - | - | - | - |
| 1778093692 | 15° C | 72% | 1008.9 hPa | - | - | - | - |
| 1778092792 | 15° C | 72% | 1008.5 hPa | - | - | - | - |
| 1778091892 | 15° C | 71% | 1008.5 hPa | - | - | - | - |
| 1778090992 | 16.11° C | 67% | 1008.4 hPa | - | - | - | - |
| 1778090092 | 16.67° C | 64% | 1008.1 hPa | - | - | - | - |
| 1778089192 | 17.22° C | 63% | 1007.6 hPa | - | - | - | - |
| 1778088292 | 17.78° C | 63% | 1007.1 hPa | - | - | - | - |
| 1778087391 | 17.78° C | 62% | 1007.3 hPa | - | - | - | - |
| 1778086491 | 18.33° C | 61% | 1007.5 hPa | - | - | - | - |
| 1778085591 | 18.89° C | 60% | 1007.4 hPa | - | - | - | - |
| 1778084691 | 18.89° C | 60% | 1007.3 hPa | - | - | - | - |
| 1778083791 | 19.44° C | 58% | 1007.2 hPa | - | - | - | - |
* Rain since midnight (hover to see other rain measurements)
** Current wind speed in m/s (hover to see current wind gust speed)